createdAt,value
2019-02-16T00:00:11.190Z,2.80
2019-02-16T00:01:11.657Z,2.90
2019-02-16T00:02:11.186Z,2.90
2019-02-16T00:03:11.232Z,2.70
2019-02-16T00:04:11.159Z,2.90
2019-02-16T00:05:11.135Z,3.10
2019-02-16T00:06:11.419Z,2.80
2019-02-16T00:07:11.163Z,3.00
2019-02-16T00:08:11.241Z,2.60
2019-02-16T00:09:11.100Z,2.60
2019-02-16T00:10:11.085Z,2.70
2019-02-16T00:11:11.069Z,2.70
2019-02-16T00:12:11.083Z,2.80
2019-02-16T00:13:11.166Z,2.80
2019-02-16T00:14:11.034Z,2.90
2019-02-16T00:15:11.028Z,2.60
2019-02-16T00:16:11.206Z,2.70
2019-02-16T00:17:11.018Z,3.10
2019-02-16T00:18:10.989Z,3.20
2019-02-16T00:19:10.993Z,2.50
2019-02-16T00:20:10.970Z,2.90
2019-02-16T00:21:10.960Z,2.70
2019-02-16T00:22:11.389Z,2.80
2019-02-16T00:23:10.947Z,3.10
2019-02-16T00:24:11.020Z,2.60
2019-02-16T00:25:10.912Z,2.70
2019-02-16T00:26:10.903Z,2.80
2019-02-16T00:27:10.915Z,2.80
2019-02-16T00:28:10.883Z,3.10
2019-02-16T00:29:10.868Z,3.10
2019-02-16T00:30:10.856Z,2.70
2019-02-16T00:31:10.846Z,2.90
2019-02-16T00:32:10.849Z,2.60
2019-02-16T00:33:10.860Z,2.80
2019-02-16T00:34:10.811Z,2.50
2019-02-16T00:35:10.851Z,3.00
2019-02-16T00:36:11.037Z,2.80
2019-02-16T00:37:10.901Z,2.80
2019-02-16T00:38:11.255Z,2.70
2019-02-16T00:39:10.905Z,2.90
2019-02-16T00:40:10.786Z,2.70
2019-02-16T00:41:10.773Z,3.00
2019-02-16T00:42:10.924Z,2.60
2019-02-16T00:43:10.711Z,2.80
2019-02-16T00:44:10.909Z,3.00
2019-02-16T00:45:10.922Z,2.70
2019-02-16T00:46:10.735Z,2.80
2019-02-16T00:47:10.667Z,2.80
2019-02-16T00:48:10.672Z,3.10
2019-02-16T00:49:10.653Z,2.80
2019-02-16T00:50:10.782Z,2.80
2019-02-16T00:51:13.476Z,2.80
2019-02-16T00:52:10.612Z,3.00
2019-02-16T00:53:10.612Z,2.90
2019-02-16T00:54:10.585Z,2.90
2019-02-16T00:55:10.579Z,3.10
2019-02-16T00:56:10.575Z,3.10
2019-02-16T00:57:10.551Z,3.00
2019-02-16T00:58:10.556Z,2.90
2019-02-16T00:59:10.528Z,2.70
2019-02-16T01:00:10.526Z,2.90
2019-02-16T01:01:10.506Z,3.00
2019-02-16T01:02:10.502Z,2.70
2019-02-16T01:03:10.502Z,2.60
2019-02-16T01:04:10.473Z,2.90
2019-02-16T01:05:10.460Z,3.00
2019-02-16T01:06:10.448Z,3.20
2019-02-16T01:07:10.437Z,2.90
2019-02-16T01:08:10.471Z,2.80
2019-02-16T01:09:10.415Z,3.00
2019-02-16T01:10:10.406Z,3.00
2019-02-16T01:11:10.394Z,2.80
2019-02-16T01:12:10.382Z,2.80
2019-02-16T01:13:10.376Z,2.90
2019-02-16T01:14:10.383Z,2.80
2019-02-16T01:15:10.348Z,2.90
2019-02-16T01:16:10.335Z,3.30
2019-02-16T01:17:10.323Z,2.90
2019-02-16T01:18:10.311Z,2.90
2019-02-16T01:19:10.315Z,2.90
2019-02-16T01:20:10.299Z,2.90
2019-02-16T01:21:10.277Z,2.90
2019-02-16T01:22:10.265Z,2.70
2019-02-16T01:23:10.254Z,3.10
2019-02-16T01:24:10.257Z,3.00
2019-02-16T01:25:10.232Z,2.80
2019-02-16T01:26:10.226Z,2.50
2019-02-16T01:27:10.207Z,2.60
2019-02-16T01:28:10.197Z,2.90
2019-02-16T01:29:10.200Z,3.00
2019-02-16T01:30:10.176Z,2.80
2019-02-16T01:31:10.169Z,2.90
2019-02-16T01:32:10.159Z,3.00
2019-02-16T01:33:10.141Z,3.10
2019-02-16T01:34:10.143Z,2.80
2019-02-16T01:35:10.117Z,2.90
2019-02-16T01:36:10.106Z,2.80
2019-02-16T01:37:10.096Z,2.70
2019-02-16T01:38:10.104Z,2.60
2019-02-16T01:39:10.086Z,2.80
2019-02-16T01:40:10.061Z,2.60
2019-02-16T01:41:10.049Z,2.80
2019-02-16T01:42:10.040Z,2.60
2019-02-16T01:43:10.026Z,2.80
2019-02-16T01:44:10.040Z,2.70
2019-02-16T01:45:10.003Z,2.70
2019-02-16T01:46:09.997Z,2.70
2019-02-16T01:47:09.980Z,2.80
2019-02-16T01:48:09.970Z,2.60
2019-02-16T01:49:09.973Z,2.60
2019-02-16T01:50:09.962Z,2.50
2019-02-16T01:51:09.936Z,2.80
2019-02-16T01:52:09.925Z,2.70
2019-02-16T01:53:09.914Z,2.50
2019-02-16T01:54:09.917Z,2.60
2019-02-16T01:55:09.891Z,2.50
2019-02-16T01:56:09.887Z,2.60
2019-02-16T01:57:09.868Z,2.50
2019-02-16T01:58:09.856Z,2.60
2019-02-16T01:59:09.860Z,2.50
2019-02-16T02:00:09.834Z,2.30
2019-02-16T02:01:09.825Z,2.50
2019-02-16T02:02:09.821Z,2.80
2019-02-16T02:03:09.800Z,2.80
2019-02-16T02:04:09.806Z,2.50
2019-02-16T02:05:09.780Z,2.80
2019-02-16T02:06:09.771Z,2.80
2019-02-16T02:07:09.788Z,2.70
2019-02-16T02:08:09.753Z,2.40
2019-02-16T02:09:09.748Z,2.40
2019-02-16T02:10:09.722Z,2.50
2019-02-16T02:11:09.712Z,2.30
2019-02-16T02:12:09.699Z,2.30
2019-02-16T02:13:09.689Z,2.40
2019-02-16T02:14:09.701Z,2.60
2019-02-16T02:15:09.667Z,2.20
2019-02-16T02:16:09.654Z,2.60
2019-02-16T02:17:09.642Z,2.50
2019-02-16T02:18:09.633Z,2.50
2019-02-16T02:19:09.634Z,2.50
2019-02-16T02:20:09.618Z,2.60
2019-02-16T02:21:09.601Z,2.60
2019-02-16T02:22:09.593Z,2.20
2019-02-16T02:23:09.575Z,2.70
2019-02-16T02:24:09.592Z,2.60
2019-02-16T02:25:09.554Z,2.30
2019-02-16T02:26:09.550Z,2.50
2019-02-16T02:27:09.530Z,2.60
2019-02-16T02:28:09.518Z,2.60
2019-02-16T02:29:09.506Z,2.60
2019-02-16T02:30:09.512Z,2.60
2019-02-16T02:31:09.485Z,2.60
2019-02-16T02:32:09.482Z,2.40
2019-02-16T02:33:09.461Z,2.30
2019-02-16T02:34:09.451Z,2.40
2019-02-16T02:35:09.453Z,2.60
2019-02-16T02:36:09.426Z,2.40
2019-02-16T02:37:09.423Z,2.70
2019-02-16T02:38:09.415Z,2.40
2019-02-16T02:39:09.403Z,2.40
2019-02-16T02:40:09.396Z,2.50
2019-02-16T02:41:09.382Z,2.50
2019-02-16T02:42:09.362Z,2.60
2019-02-16T02:43:09.349Z,2.20
2019-02-16T02:44:09.348Z,2.30
2019-02-16T02:45:09.340Z,2.30
2019-02-16T02:46:09.314Z,2.40
2019-02-16T02:47:09.302Z,2.40
2019-02-16T02:48:09.295Z,2.30
2019-02-16T02:49:09.280Z,2.50
2019-02-16T02:50:09.318Z,2.10
2019-02-16T02:51:09.257Z,2.20
2019-02-16T02:52:09.257Z,2.20
2019-02-16T02:53:09.234Z,2.60
2019-02-16T02:54:09.225Z,2.30
2019-02-16T02:55:09.221Z,2.50
2019-02-16T02:56:09.228Z,2.40
2019-02-16T02:57:09.191Z,2.30
2019-02-16T02:58:09.180Z,2.30
2019-02-16T02:59:09.167Z,2.30
2019-02-16T03:00:09.155Z,2.40
2019-02-16T03:01:09.161Z,2.30
2019-02-16T03:02:09.144Z,2.10
2019-02-16T03:03:09.126Z,2.30
2019-02-16T03:04:09.112Z,2.20
2019-02-16T03:05:09.102Z,2.20
2019-02-16T03:06:09.104Z,2.40
2019-02-16T03:07:09.076Z,2.20
2019-02-16T03:08:09.073Z,2.50
2019-02-16T03:09:09.056Z,2.30
2019-02-16T03:10:09.044Z,2.10
2019-02-16T03:11:09.047Z,2.40
2019-02-16T03:12:09.021Z,2.50
2019-02-16T03:13:09.012Z,2.30
2019-02-16T03:14:09.005Z,2.40
2019-02-16T03:15:08.987Z,2.50
2019-02-16T03:16:08.989Z,2.30
2019-02-16T03:17:08.964Z,2.40
2019-02-16T03:18:08.976Z,2.30
2019-02-16T03:19:08.943Z,2.20
2019-02-16T03:20:08.941Z,2.40
2019-02-16T03:21:08.935Z,2.50
2019-02-16T03:22:08.906Z,2.50
2019-02-16T03:23:08.897Z,2.30
2019-02-16T03:24:08.887Z,2.30
2019-02-16T03:25:08.873Z,2.20
2019-02-16T03:26:08.882Z,2.20
2019-02-16T03:27:08.850Z,2.30
2019-02-16T03:28:08.840Z,2.30
2019-02-16T03:29:08.827Z,2.10
2019-02-16T03:30:08.818Z,2.30
2019-02-16T03:31:08.824Z,2.10
2019-02-16T03:32:08.807Z,2.30
2019-02-16T03:33:08.784Z,2.10
2019-02-16T03:34:08.770Z,2.30
2019-02-16T03:35:08.758Z,2.10
2019-02-16T03:36:08.764Z,2.20
2019-02-16T03:37:08.735Z,2.20
2019-02-16T03:38:08.739Z,2.00
2019-02-16T03:39:08.715Z,2.30
2019-02-16T03:40:08.707Z,2.10
2019-02-16T03:41:08.723Z,2.30
2019-02-16T03:42:08.679Z,2.40
2019-02-16T03:43:08.669Z,2.20
2019-02-16T03:44:08.670Z,2.50
2019-02-16T03:45:08.647Z,2.10
2019-02-16T03:46:08.639Z,2.10
2019-02-16T03:47:08.641Z,2.20
2019-02-16T03:48:08.613Z,2.10
2019-02-16T03:49:08.621Z,2.20
2019-02-16T03:50:08.601Z,2.10
2019-02-16T03:51:08.582Z,2.00
2019-02-16T03:52:13.863Z,2.10
2019-02-16T03:53:09.553Z,2.20
2019-02-16T03:54:08.545Z,2.00
2019-02-16T03:55:08.532Z,2.20
2019-02-16T03:56:08.529Z,2.10
2019-02-16T03:57:08.531Z,2.20
2019-02-16T03:58:08.501Z,2.20
2019-02-16T03:59:08.490Z,2.20
2019-02-16T04:00:08.477Z,2.00
2019-02-16T04:01:08.464Z,2.10
2019-02-16T04:02:08.479Z,2.10
2019-02-16T04:03:08.444Z,1.90
2019-02-16T04:04:08.431Z,2.10
2019-02-16T04:05:08.423Z,2.30
2019-02-16T04:06:08.409Z,1.90
2019-02-16T04:07:08.441Z,2.00
2019-02-16T04:08:08.395Z,2.10
2019-02-16T04:09:08.375Z,2.00
2019-02-16T04:10:08.365Z,2.00
2019-02-16T04:11:08.352Z,2.10
2019-02-16T04:12:08.361Z,2.10
2019-02-16T04:13:08.331Z,2.00
2019-02-16T04:14:08.327Z,2.10
2019-02-16T04:15:08.307Z,2.30
2019-02-16T04:16:08.297Z,2.20
2019-02-16T04:17:08.300Z,2.10
2019-02-16T04:18:08.273Z,2.00
2019-02-16T04:19:08.261Z,1.90
2019-02-16T04:20:08.257Z,2.00
2019-02-16T04:21:08.238Z,2.20
2019-02-16T04:22:08.241Z,1.90
2019-02-16T04:23:08.216Z,2.00
2019-02-16T04:24:08.204Z,2.00
2019-02-16T04:25:08.195Z,2.00
2019-02-16T04:26:08.197Z,1.90
2019-02-16T04:27:08.188Z,2.10
2019-02-16T04:28:08.160Z,2.00
2019-02-16T04:29:08.149Z,2.00
2019-02-16T04:30:08.136Z,2.00
2019-02-16T04:31:08.124Z,1.80
2019-02-16T04:32:08.161Z,2.10
2019-02-16T04:33:08.104Z,2.10
2019-02-16T04:34:08.090Z,2.00
2019-02-16T04:35:08.079Z,2.00
2019-02-16T04:36:08.068Z,2.10
2019-02-16T04:37:08.058Z,2.00
2019-02-16T04:38:08.069Z,1.90
2019-02-16T04:39:08.036Z,1.90
2019-02-16T04:40:08.021Z,2.00
2019-02-16T04:41:08.009Z,2.00
2019-02-16T04:42:07.999Z,1.90
2019-02-16T04:43:08.019Z,2.00
2019-02-16T04:44:07.988Z,2.10
2019-02-16T04:45:07.965Z,1.80
2019-02-16T04:46:07.951Z,2.00
2019-02-16T04:47:07.940Z,2.00
2019-02-16T04:48:07.944Z,2.00
2019-02-16T04:49:07.920Z,2.10
2019-02-16T04:50:07.930Z,1.70
2019-02-16T04:51:07.903Z,1.90
2019-02-16T04:52:07.897Z,1.80
2019-02-16T04:53:07.887Z,2.10
2019-02-16T04:54:07.861Z,1.90
2019-02-16T04:55:07.854Z,2.00
2019-02-16T04:56:07.859Z,1.90
2019-02-16T04:57:07.828Z,1.90
2019-02-16T04:58:07.831Z,1.60
2019-02-16T04:59:07.810Z,2.00
2019-02-16T05:00:07.794Z,1.90
2019-02-16T05:01:07.803Z,1.80
2019-02-16T05:02:07.783Z,2.00
2019-02-16T05:03:07.773Z,2.10
2019-02-16T05:04:07.749Z,1.70
2019-02-16T05:05:07.737Z,1.90
2019-02-16T05:06:07.731Z,1.90
2019-02-16T05:07:07.715Z,1.80
2019-02-16T05:08:07.734Z,2.10
2019-02-16T05:09:07.691Z,2.00
2019-02-16T05:10:07.678Z,2.20
2019-02-16T05:11:07.681Z,2.00
2019-02-16T05:12:07.655Z,1.90
2019-02-16T05:13:07.659Z,2.20
2019-02-16T05:14:07.647Z,2.10
2019-02-16T05:15:07.623Z,2.20
2019-02-16T05:16:07.611Z,2.10
2019-02-16T05:17:07.598Z,2.10
2019-02-16T05:18:07.604Z,2.10
2019-02-16T05:19:07.587Z,2.10
2019-02-16T05:20:07.633Z,2.30
2019-02-16T05:21:07.552Z,2.00
2019-02-16T05:22:07.542Z,2.20
2019-02-16T05:23:07.549Z,2.10
2019-02-16T05:24:07.524Z,2.40
2019-02-16T05:25:07.518Z,2.10
2019-02-16T05:26:07.498Z,2.20
2019-02-16T05:27:07.535Z,1.90
2019-02-16T05:28:07.489Z,2.50
2019-02-16T05:29:07.461Z,2.10
2019-02-16T05:30:07.450Z,2.30
2019-02-16T05:31:07.447Z,2.30
2019-02-16T05:32:07.428Z,2.40
2019-02-16T05:33:07.434Z,2.40
2019-02-16T05:34:07.406Z,2.30
2019-02-16T05:35:07.394Z,2.20
2019-02-16T05:36:07.383Z,2.40
2019-02-16T05:37:07.378Z,2.40
2019-02-16T05:38:07.401Z,2.40
2019-02-16T05:39:07.348Z,2.20
2019-02-16T05:40:07.336Z,2.10
2019-02-16T05:41:07.335Z,2.00
2019-02-16T05:42:07.314Z,2.30
2019-02-16T05:43:07.318Z,2.30
2019-02-16T05:44:07.305Z,2.20
2019-02-16T05:45:07.283Z,2.10
2019-02-16T05:46:07.270Z,2.20
2019-02-16T05:47:07.257Z,2.20
2019-02-16T05:48:07.246Z,2.40
2019-02-16T05:49:07.259Z,2.00
2019-02-16T05:50:07.223Z,2.10
2019-02-16T05:51:07.213Z,2.10
2019-02-16T05:52:07.201Z,1.90
2019-02-16T05:53:07.190Z,2.30
2019-02-16T05:54:07.195Z,2.10
2019-02-16T05:55:07.176Z,2.20
2019-02-16T05:56:07.155Z,2.00
2019-02-16T05:57:07.146Z,2.10
2019-02-16T05:58:07.133Z,2.30
2019-02-16T05:59:08.229Z,2.00
2019-02-16T06:00:07.113Z,2.20
2019-02-16T06:01:07.112Z,2.10
2019-02-16T06:02:07.090Z,2.10
2019-02-16T06:03:07.078Z,2.00
2019-02-16T06:04:07.080Z,1.90
2019-02-16T06:05:07.059Z,1.90
2019-02-16T06:06:07.042Z,2.00
2019-02-16T06:07:07.038Z,2.00
2019-02-16T06:08:07.023Z,2.20
2019-02-16T06:09:07.040Z,2.00
2019-02-16T06:10:06.999Z,2.00
2019-02-16T06:11:06.986Z,2.00
2019-02-16T06:12:06.981Z,2.00
2019-02-16T06:13:06.992Z,2.00
2019-02-16T06:14:06.954Z,1.90
2019-02-16T06:15:06.964Z,2.10
2019-02-16T06:16:06.947Z,1.90
2019-02-16T06:17:06.917Z,1.90
2019-02-16T06:18:06.906Z,1.90
2019-02-16T06:19:06.904Z,1.80
2019-02-16T06:20:06.904Z,1.80
2019-02-16T06:21:06.886Z,1.90
2019-02-16T06:22:06.862Z,2.00
2019-02-16T06:23:06.851Z,1.90
2019-02-16T06:24:06.838Z,1.80
2019-02-16T06:25:06.852Z,2.10
2019-02-16T06:26:06.816Z,2.00
2019-02-16T06:27:06.804Z,1.70
2019-02-16T06:28:06.793Z,2.00
2019-02-16T06:29:06.782Z,1.80
2019-02-16T06:30:06.788Z,1.80
2019-02-16T06:31:06.768Z,1.90
2019-02-16T06:32:06.748Z,1.60
2019-02-16T06:33:06.740Z,1.90
2019-02-16T06:34:06.726Z,1.90
2019-02-16T06:35:06.730Z,1.80
2019-02-16T06:36:06.705Z,1.80
2019-02-16T06:37:06.699Z,1.70
2019-02-16T06:38:06.682Z,1.90
2019-02-16T06:39:06.671Z,1.80
2019-02-16T06:40:06.675Z,1.70
2019-02-16T06:41:06.650Z,1.60
2019-02-16T06:42:06.637Z,1.70
2019-02-16T06:43:06.655Z,1.60
2019-02-16T06:44:06.622Z,1.70
2019-02-16T06:45:06.619Z,1.80
2019-02-16T06:46:06.595Z,1.80
2019-02-16T06:47:06.583Z,1.70
2019-02-16T06:48:06.569Z,1.90
2019-02-16T06:49:06.573Z,1.80
2019-02-16T06:50:06.561Z,2.00
2019-02-16T06:51:06.536Z,1.90
2019-02-16T06:52:06.524Z,1.60
2019-02-16T06:53:12.862Z,1.80
2019-02-16T06:54:07.501Z,1.80
2019-02-16T06:55:06.516Z,1.60
2019-02-16T06:56:06.480Z,1.70
2019-02-16T06:57:06.469Z,1.70
2019-02-16T06:58:06.457Z,1.70
2019-02-16T06:59:06.446Z,1.60
2019-02-16T07:00:06.450Z,1.70
2019-02-16T07:01:06.432Z,1.60
2019-02-16T07:02:06.412Z,1.60
2019-02-16T07:03:06.401Z,1.50
2019-02-16T07:04:06.390Z,1.60
2019-02-16T07:05:06.396Z,1.60
2019-02-16T07:06:06.367Z,1.70
2019-02-16T07:07:06.364Z,1.70
2019-02-16T07:08:06.346Z,1.90
2019-02-16T07:09:06.334Z,1.90
2019-02-16T07:10:06.356Z,2.00
2019-02-16T07:11:06.311Z,1.50
2019-02-16T07:12:06.310Z,1.60
2019-02-16T07:13:06.305Z,1.90
2019-02-16T07:14:06.279Z,1.50
2019-02-16T07:15:06.265Z,1.50
2019-02-16T07:16:06.270Z,1.60
2019-02-16T07:17:06.241Z,1.70
2019-02-16T07:18:06.232Z,1.60
2019-02-16T07:19:06.228Z,2.00
2019-02-16T07:20:07.754Z,1.70
2019-02-16T07:21:06.211Z,1.80
2019-02-16T07:22:06.189Z,1.80
2019-02-16T07:23:06.173Z,1.90
2019-02-16T07:24:06.162Z,1.80
2019-02-16T07:25:06.159Z,1.80
2019-02-16T07:26:06.157Z,1.90
2019-02-16T07:27:06.130Z,1.70
2019-02-16T07:28:06.117Z,1.90
2019-02-16T07:29:06.108Z,2.00
2019-02-16T07:30:06.095Z,1.80
2019-02-16T07:31:06.117Z,1.90
2019-02-16T07:32:06.072Z,1.90
2019-02-16T07:33:06.060Z,1.90
2019-02-16T07:34:06.050Z,1.90
2019-02-16T07:35:06.039Z,1.80
2019-02-16T07:36:06.039Z,1.80
2019-02-16T07:37:06.027Z,2.00
2019-02-16T07:38:06.015Z,1.80
2019-02-16T07:39:05.992Z,1.70
2019-02-16T07:40:05.979Z,2.10
2019-02-16T07:41:06.001Z,1.80
2019-02-16T07:42:05.957Z,1.60
2019-02-16T07:43:05.954Z,1.80
2019-02-16T07:44:05.933Z,1.70
2019-02-16T07:45:05.922Z,1.70
2019-02-16T07:46:05.930Z,1.70
2019-02-16T07:47:05.900Z,1.80
2019-02-16T07:48:05.889Z,1.60
2019-02-16T07:49:05.883Z,1.90
2019-02-16T07:50:05.865Z,1.80
2019-02-16T07:51:05.869Z,1.60
2019-02-16T07:52:05.844Z,1.60
2019-02-16T07:53:05.832Z,1.50
2019-02-16T07:54:05.822Z,1.60
2019-02-16T07:55:05.819Z,1.50
2019-02-16T07:56:05.813Z,1.70
2019-02-16T07:57:05.788Z,1.60
2019-02-16T07:58:05.776Z,1.60
2019-02-16T07:59:05.764Z,1.70
2019-02-16T08:00:05.754Z,1.40
2019-02-16T08:01:05.768Z,1.70
2019-02-16T08:02:05.731Z,1.60
2019-02-16T08:03:05.719Z,1.60
2019-02-16T08:04:05.708Z,1.50
2019-02-16T08:05:05.696Z,1.50
2019-02-16T08:06:05.705Z,1.60
2019-02-16T08:07:05.686Z,1.80
2019-02-16T08:08:05.663Z,1.70
2019-02-16T08:09:05.653Z,1.70
2019-02-16T08:10:05.640Z,1.70
2019-02-16T08:11:05.687Z,1.80
2019-02-16T08:12:05.619Z,1.70
2019-02-16T08:13:05.615Z,1.60
2019-02-16T08:14:05.596Z,1.60
2019-02-16T08:15:05.585Z,1.60
2019-02-16T08:16:05.574Z,1.60
2019-02-16T08:17:05.577Z,1.70
2019-02-16T08:18:05.551Z,2.00
2019-02-16T08:19:05.590Z,1.70
2019-02-16T08:20:05.528Z,1.80
2019-02-16T08:21:05.518Z,1.60
2019-02-16T08:22:05.526Z,1.70
2019-02-16T08:23:05.495Z,1.60
2019-02-16T08:24:05.483Z,1.70
2019-02-16T08:25:05.480Z,1.50
2019-02-16T08:26:05.461Z,1.60
2019-02-16T08:27:05.464Z,1.90
2019-02-16T08:28:05.439Z,1.80
2019-02-16T08:29:05.430Z,1.80
2019-02-16T08:30:05.416Z,1.80
2019-02-16T08:31:05.412Z,1.60
2019-02-16T08:32:05.408Z,1.60
2019-02-16T08:33:05.383Z,1.70
2019-02-16T08:34:05.377Z,1.70
2019-02-16T08:35:05.361Z,1.80
2019-02-16T08:36:05.349Z,2.00
2019-02-16T08:37:05.361Z,1.70
2019-02-16T08:38:05.328Z,1.90
2019-02-16T08:39:05.314Z,2.00
2019-02-16T08:40:05.307Z,1.70
2019-02-16T08:41:05.294Z,1.90
2019-02-16T08:42:05.300Z,1.90
2019-02-16T08:43:05.279Z,1.80
2019-02-16T08:44:05.259Z,1.70
2019-02-16T08:45:05.248Z,1.70
2019-02-16T08:46:05.239Z,1.80
2019-02-16T08:47:05.239Z,1.90
2019-02-16T08:48:05.214Z,1.60
2019-02-16T08:49:05.231Z,2.00
2019-02-16T08:50:05.193Z,1.70
2019-02-16T08:51:05.179Z,1.80
2019-02-16T08:52:05.184Z,1.70
2019-02-16T08:53:05.159Z,1.50
2019-02-16T08:54:05.154Z,1.70
2019-02-16T08:55:05.145Z,1.80
2019-02-16T08:56:05.124Z,1.60
2019-02-16T08:57:05.130Z,1.70
2019-02-16T08:58:05.107Z,1.80
2019-02-16T08:59:05.091Z,1.70
2019-02-16T09:00:05.085Z,1.50
2019-02-16T09:01:05.069Z,1.70
2019-02-16T09:02:05.086Z,1.70
2019-02-16T09:03:05.045Z,2.00
2019-02-16T09:04:05.036Z,1.80
2019-02-16T09:05:05.022Z,2.00
2019-02-16T09:06:05.012Z,1.90
2019-02-16T09:07:05.015Z,1.80
2019-02-16T09:08:04.987Z,1.90
2019-02-16T09:09:04.977Z,1.90
2019-02-16T09:10:04.989Z,2.00
2019-02-16T09:11:04.964Z,1.90
2019-02-16T09:12:05.974Z,1.80
2019-02-16T09:13:04.931Z,1.70
2019-02-16T09:14:04.926Z,1.80
2019-02-16T09:15:04.915Z,1.70
2019-02-16T09:16:04.898Z,2.00
2019-02-16T09:17:04.891Z,2.00
2019-02-16T09:18:04.900Z,1.80
2019-02-16T09:19:04.864Z,1.70
2019-02-16T09:20:04.859Z,1.80
2019-02-16T09:21:14.198Z,1.80
2019-02-16T09:22:05.830Z,1.90
2019-02-16T09:23:04.836Z,2.00
2019-02-16T09:24:04.819Z,2.20
2019-02-16T09:25:04.798Z,1.80
2019-02-16T09:26:04.784Z,1.90
2019-02-16T09:27:04.774Z,2.10
2019-02-16T09:28:04.778Z,1.80
2019-02-16T09:29:04.754Z,2.10
2019-02-16T09:30:04.753Z,2.10
2019-02-16T09:31:04.738Z,2.10
2019-02-16T09:32:04.723Z,1.90
2019-02-16T09:33:04.724Z,2.00
2019-02-16T09:34:04.699Z,2.10
2019-02-16T09:35:04.687Z,2.00
2019-02-16T09:36:04.681Z,2.00
2019-02-16T09:37:04.669Z,1.90
2019-02-16T09:38:04.668Z,1.90
2019-02-16T09:39:04.641Z,1.70
2019-02-16T09:40:04.632Z,1.80
2019-02-16T09:41:04.620Z,2.00
2019-02-16T09:42:04.617Z,1.80
2019-02-16T09:43:04.613Z,1.70
2019-02-16T09:44:04.587Z,1.90
2019-02-16T09:45:04.576Z,1.70
2019-02-16T09:46:04.563Z,1.90
2019-02-16T09:47:04.566Z,2.00
2019-02-16T09:48:04.565Z,1.80
2019-02-16T09:49:04.534Z,1.80
2019-02-16T09:50:04.532Z,1.70
2019-02-16T09:51:04.536Z,1.50
2019-02-16T09:52:04.496Z,1.90
2019-02-16T09:53:04.517Z,1.70
2019-02-16T09:54:08.326Z,1.50
2019-02-16T09:55:04.472Z,1.70
2019-02-16T09:56:04.487Z,1.50
2019-02-16T09:57:04.444Z,1.70
2019-02-16T09:58:04.433Z,1.90
2019-02-16T09:59:04.443Z,1.80
2019-02-16T10:00:04.407Z,1.30
2019-02-16T10:01:04.396Z,1.60
2019-02-16T10:02:04.387Z,1.70
2019-02-16T10:03:04.381Z,1.70
2019-02-16T10:04:04.382Z,1.60
2019-02-16T10:05:04.358Z,1.50
2019-02-16T10:06:04.350Z,1.60
2019-02-16T10:07:04.332Z,1.40
2019-02-16T10:08:04.323Z,1.50
2019-02-16T10:09:04.324Z,1.70
2019-02-16T10:10:04.296Z,1.60
2019-02-16T10:11:04.326Z,1.70
2019-02-16T10:12:04.273Z,1.30
2019-02-16T10:13:04.268Z,1.50
2019-02-16T10:14:04.274Z,1.50
2019-02-16T10:15:04.242Z,1.50
2019-02-16T10:16:04.231Z,1.50
2019-02-16T10:17:04.225Z,1.80
2019-02-16T10:18:04.206Z,1.40
2019-02-16T10:19:04.213Z,1.60
2019-02-16T10:20:04.184Z,1.40
2019-02-16T10:21:04.178Z,1.50
2019-02-16T10:22:04.165Z,1.40
2019-02-16T10:23:04.160Z,1.70
2019-02-16T10:24:04.174Z,1.50
2019-02-16T10:25:04.137Z,1.60
2019-02-16T10:26:04.118Z,1.50
2019-02-16T10:27:04.109Z,1.50
2019-02-16T10:28:04.094Z,1.50
2019-02-16T10:29:04.094Z,1.50
2019-02-16T10:30:04.089Z,1.50
2019-02-16T10:31:04.063Z,1.40
2019-02-16T10:32:04.054Z,1.50
2019-02-16T10:33:04.038Z,1.50
2019-02-16T10:34:04.028Z,1.40
2019-02-16T10:35:04.042Z,1.40
2019-02-16T10:36:04.007Z,1.30
2019-02-16T10:37:03.996Z,1.50
2019-02-16T10:38:03.983Z,1.50
2019-02-16T10:39:03.973Z,1.40
2019-02-16T10:40:03.985Z,1.50
2019-02-16T10:41:03.966Z,1.40
2019-02-16T10:42:03.940Z,1.50
2019-02-16T10:43:03.931Z,1.40
2019-02-16T10:44:03.918Z,1.40
2019-02-16T10:45:03.921Z,1.60
2019-02-16T10:46:03.896Z,1.40
2019-02-16T10:47:03.892Z,1.30
2019-02-16T10:48:03.873Z,1.50
2019-02-16T10:49:03.863Z,1.60
2019-02-16T10:50:03.869Z,1.40
2019-02-16T10:51:03.838Z,1.30
2019-02-16T10:52:03.828Z,1.50
2019-02-16T10:53:03.826Z,1.40
2019-02-16T10:54:03.806Z,1.50
2019-02-16T10:55:03.814Z,1.30
2019-02-16T10:56:03.784Z,1.50
2019-02-16T10:57:03.774Z,1.50
2019-02-16T10:58:03.762Z,1.50
2019-02-16T10:59:03.760Z,1.30
2019-02-16T11:00:03.754Z,1.40
2019-02-16T11:01:03.729Z,1.30
2019-02-16T11:02:03.717Z,1.30
2019-02-16T11:03:03.707Z,1.50
2019-02-16T11:04:03.694Z,1.50
2019-02-16T11:05:03.689Z,1.40
2019-02-16T11:06:03.689Z,1.30
2019-02-16T11:07:03.661Z,1.20
2019-02-16T11:08:03.651Z,1.30
2019-02-16T11:09:03.641Z,1.40
2019-02-16T11:10:03.630Z,1.40
2019-02-16T11:11:03.639Z,1.50
2019-02-16T11:12:03.607Z,1.30
2019-02-16T11:13:03.598Z,1.50
2019-02-16T11:14:03.586Z,1.50
2019-02-16T11:15:03.575Z,1.40
2019-02-16T11:16:03.577Z,1.50
2019-02-16T11:17:03.563Z,1.30
2019-02-16T11:18:03.543Z,1.20
2019-02-16T11:19:03.531Z,1.40
2019-02-16T11:20:03.521Z,1.40
2019-02-16T11:21:03.525Z,1.30
2019-02-16T11:22:04.493Z,1.30
2019-02-16T11:23:03.499Z,1.40
2019-02-16T11:24:03.478Z,1.30
2019-02-16T11:25:03.467Z,1.20
2019-02-16T11:26:03.494Z,1.40
2019-02-16T11:27:03.444Z,1.30
2019-02-16T11:28:03.434Z,1.40
2019-02-16T11:29:03.432Z,1.50
2019-02-16T11:30:03.414Z,1.40
2019-02-16T11:31:03.400Z,1.30
2019-02-16T11:32:03.403Z,1.40
2019-02-16T11:33:03.378Z,1.30
2019-02-16T11:34:03.369Z,1.20
2019-02-16T11:35:03.363Z,1.40
2019-02-16T11:36:03.344Z,1.50
2019-02-16T11:37:03.348Z,1.20
2019-02-16T11:38:03.322Z,1.40
2019-02-16T11:39:03.313Z,1.40
2019-02-16T11:40:03.302Z,1.20
2019-02-16T11:41:03.293Z,1.30
2019-02-16T11:42:03.291Z,1.50
2019-02-16T11:43:03.272Z,1.20
2019-02-16T11:44:03.254Z,1.20
2019-02-16T11:45:03.244Z,1.30
2019-02-16T11:46:03.231Z,1.30
2019-02-16T11:47:03.244Z,1.30
2019-02-16T11:48:03.211Z,1.50
2019-02-16T11:49:03.202Z,1.20
2019-02-16T11:50:03.195Z,1.40
2019-02-16T11:51:03.188Z,1.40
2019-02-16T11:52:03.199Z,1.40
2019-02-16T11:53:03.164Z,1.30
2019-02-16T11:54:03.144Z,1.10
2019-02-16T11:55:03.131Z,1.30
2019-02-16T11:56:03.121Z,1.50
2019-02-16T11:57:03.112Z,1.30
2019-02-16T11:58:03.116Z,1.20
2019-02-16T11:59:03.105Z,1.20
2019-02-16T12:00:03.077Z,1.20
2019-02-16T12:01:03.065Z,1.10
2019-02-16T12:02:03.055Z,1.40
2019-02-16T12:03:03.062Z,1.30
2019-02-16T12:04:03.037Z,1.30
2019-02-16T12:05:03.031Z,1.30
2019-02-16T12:06:03.012Z,1.20
2019-02-16T12:07:03.009Z,1.40
2019-02-16T12:08:03.004Z,1.20
2019-02-16T12:09:02.979Z,1.20
2019-02-16T12:10:02.967Z,1.20
2019-02-16T12:11:02.974Z,1.30
2019-02-16T12:12:02.953Z,1.30
2019-02-16T12:13:02.950Z,1.30
2019-02-16T12:14:02.925Z,1.20
2019-02-16T12:15:02.913Z,1.10
2019-02-16T12:16:02.910Z,1.20
2019-02-16T12:17:02.911Z,1.30
2019-02-16T12:18:02.901Z,1.20
2019-02-16T12:19:02.870Z,1.20
2019-02-16T12:20:02.861Z,1.20
2019-02-16T12:21:02.862Z,1.10
2019-02-16T12:22:02.841Z,1.10
2019-02-16T12:23:02.912Z,1.10
2019-02-16T12:24:02.816Z,1.30
2019-02-16T12:25:05.763Z,1.10
2019-02-16T12:26:02.796Z,1.00
2019-02-16T12:27:02.783Z,1.20
2019-02-16T12:28:02.795Z,1.00
2019-02-16T12:29:02.773Z,1.20
2019-02-16T12:30:02.751Z,1.20
2019-02-16T12:31:02.740Z,1.10
2019-02-16T12:32:02.730Z,1.20
2019-02-16T12:33:02.735Z,1.20
2019-02-16T12:34:02.707Z,1.40
2019-02-16T12:35:02.708Z,1.20
2019-02-16T12:36:02.688Z,1.20
2019-02-16T12:37:02.677Z,1.30
2019-02-16T12:38:02.682Z,1.50
2019-02-16T12:39:04.812Z,1.00
2019-02-16T12:40:02.645Z,1.00
2019-02-16T12:41:02.644Z,1.20
2019-02-16T12:42:02.624Z,1.10
2019-02-16T12:43:02.628Z,1.20
2019-02-16T12:44:02.606Z,1.10
2019-02-16T12:45:02.594Z,0.90
2019-02-16T12:46:02.587Z,1.20
2019-02-16T12:47:02.595Z,1.00
2019-02-16T12:48:02.596Z,1.10
2019-02-16T12:49:02.551Z,1.20
2019-02-16T12:50:02.542Z,1.20
2019-02-16T12:51:02.531Z,1.00
2019-02-16T12:52:02.520Z,1.10
2019-02-16T12:53:02.521Z,1.00
2019-02-16T12:54:02.518Z,1.10
2019-02-16T12:55:02.489Z,1.10
2019-02-16T12:56:02.479Z,1.20
2019-02-16T12:57:02.473Z,1.00
2019-02-16T12:58:02.460Z,1.20
2019-02-16T12:59:02.474Z,1.00
2019-02-16T13:00:02.441Z,1.10
2019-02-16T13:01:02.428Z,1.10
2019-02-16T13:02:02.417Z,1.00
2019-02-16T13:03:02.411Z,1.10
2019-02-16T13:04:02.412Z,1.00
2019-02-16T13:05:02.398Z,1.10
2019-02-16T13:06:02.376Z,1.20
2019-02-16T13:07:02.377Z,1.00
2019-02-16T13:08:02.374Z,0.90
2019-02-16T13:09:02.368Z,1.10
2019-02-16T13:10:02.335Z,1.00
2019-02-16T13:11:02.352Z,1.00
2019-02-16T13:12:02.321Z,1.00
2019-02-16T13:13:02.669Z,1.00
2019-02-16T13:14:02.328Z,1.00
2019-02-16T13:15:02.293Z,1.00
2019-02-16T13:16:02.281Z,1.10
2019-02-16T13:17:02.274Z,1.10
2019-02-16T13:18:02.303Z,1.10